Cheatham Observed Data For Previous 48 Hours

Caption
Day and Hour Reservoir Elevation (behind dam)* Tailwater Elevation (below dam)* Average Hourly Discharge*
6/20/2018 1 AM CDT 385.77 360.30 0
6/20/2018 2 AM CDT 385.80 360.08 0
6/20/2018 3 AM CDT 385.90 359.65 0
6/20/2018 4 AM CDT 385.96 359.50 0
6/20/2018 5 AM CDT 385.82 359.36 6,700
6/20/2018 6 AM CDT 385.80 359.30 6,700
6/20/2018 7 AM CDT 385.84 359.31 6,700
6/20/2018 8 AM CDT 385.84 359.36 6,700
6/20/2018 9 AM CDT 385.84 359.41 6,700
6/20/2018 10 AM CDT 385.84 359.48 6,700
6/20/2018 11 AM CDT 385.79 359.54 6,700
6/20/2018 12 PM CDT 385.56 359.76 13,400
6/20/2018 1 PM CDT 385.50 359.93 13,600
6/20/2018 2 PM CDT 385.44 360.10 13,600
6/20/2018 3 PM CDT 385.18 360.39 20,400
6/20/2018 4 PM CDT 385.09 360.66 20,700
6/20/2018 5 PM CDT 384.99 360.90 21,000
6/20/2018 6 PM CDT 384.96 361.00 21,000
6/20/2018 7 PM CDT 384.98 361.65 21,000
6/20/2018 8 PM CDT 384.80 361.60 21,000
6/20/2018 9 PM CDT 384.90 361.50 13,600
6/20/2018 10 PM CDT 384.97 361.47 13,600
6/20/2018 11 PM CDT 385.20 361.20 6,700
6/21/2018 12 AM CDT 385.20 361.10 6,700
6/21/2018 1 AM CDT 385.20 360.32 6,800
6/21/2018 2 AM CDT 385.20 360.35 6,800
6/21/2018 3 AM CDT 385.36 360.15 0
6/21/2018 4 AM CDT 385.45 360.06 0
6/21/2018 5 AM CDT 385.60 359.55 0
6/21/2018 6 AM CDT 385.55 360.00 6,800
6/21/2018 7 AM CDT 385.41 359.33 6,700
6/21/2018 8 AM CDT 385.38 359.35 6,700
6/21/2018 9 AM CDT 385.40 359.40 6,700
6/21/2018 10 AM CDT 385.42 359.47 6,700
6/21/2018 11 AM CDT 385.43 359.51 6,700
6/21/2018 12 PM CDT 385.41 359.53 6,700
6/21/2018 1 PM CDT 385.18 359.69 13,600
6/21/2018 2 PM CDT 385.11 359.87 13,600
6/21/2018 3 PM CDT 385.03 360.03 13,600
6/21/2018 4 PM CDT 384.72 360.28 20,700
6/21/2018 5 PM CDT 384.67 360.53 21,000
6/21/2018 6 PM CDT 384.57 360.76 21,000
6/21/2018 7 PM CDT 384.45 361.35 21,000
6/21/2018 8 PM CDT 384.45 361.66 21,000
6/21/2018 9 PM CDT 384.40 361.70 21,000
6/21/2018 10 PM CDT 384.60 361.50 14,400
6/21/2018 11 PM CDT 384.80 361.33 6,900
6/22/2018 12 AM CDT 384.94 361.00 6,900

Elevations are in feet above sea level. Discharges are in cubic feet per second and are reported at the end of the hour.